BAW29 EDDG-EDDS
Flight info
| Callsign | BAW29 |
|---|---|
| Flight time | N/A |
| Altitude | 23000 |
| Route | DOMEG1E/07 DOMEG Z841 BIGSU L603 BOMBI N850 KRH T128 BADSO BADSO2A |
| Aircraft | B738/M-SDE2E3FGHIRWXY/LB1 |
Departure
| Time | 2026-05-05 16:25 |
|---|---|
| Airport | Münster Osnabrück Airport (EDDG) |
Arrival
| Time | N/A |
|---|---|
| Airport | Stuttgart Airport (EDDS) |
| Time | Latitude | Longitude | Altitude | Speed | Heading |
|---|---|---|---|---|---|
| 2026-05-05 16:02 | 52.13197 | 7.68696 | 166 ft | 0 kts | 160° |
| 2026-05-05 16:16 | 52.13196 | 7.68696 | 166 ft | 1 kts | 160° |
| 2026-05-05 16:16 | 52.13180 | 7.68725 | 166 ft | 3 kts | 97° |
| 2026-05-05 16:17 | 52.13195 | 7.68811 | 166 ft | 5 kts | 72° |
| 2026-05-05 16:17 | 52.13207 | 7.68872 | 166 ft | 6 kts | 72° |
| 2026-05-05 16:18 | 52.13277 | 7.68896 | 166 ft | 7 kts | 333° |
| 2026-05-05 16:18 | 52.13319 | 7.68861 | 166 ft | 7 kts | 333° |
| 2026-05-05 16:18 | 52.13337 | 7.68709 | 166 ft | 8 kts | 255° |
| 2026-05-05 16:19 | 52.13320 | 7.68626 | 166 ft | 8 kts | 250° |
| 2026-05-05 16:19 | 52.13303 | 7.68548 | 166 ft | 7 kts | 251° |
| 2026-05-05 16:19 | 52.13271 | 7.68397 | 166 ft | 7 kts | 251° |
| 2026-05-05 16:20 | 52.13240 | 7.68249 | 165 ft | 7 kts | 251° |
| 2026-05-05 16:20 | 52.13200 | 7.68062 | 165 ft | 10 kts | 251° |
| 2026-05-05 16:21 | 52.13151 | 7.67827 | 165 ft | 12 kts | 251° |
| 2026-05-05 16:22 | 52.13062 | 7.67408 | 164 ft | 14 kts | 251° |
| 2026-05-05 16:22 | 52.13036 | 7.67119 | 164 ft | 13 kts | 302° |
| 2026-05-05 16:23 | 52.13160 | 7.67063 | 164 ft | 9 kts | 37° |
| 2026-05-05 16:23 | 52.13183 | 7.67140 | 163 ft | 0 kts | 72° |
| 2026-05-05 16:24 | 52.13188 | 7.67165 | 163 ft | 11 kts | 73° |
| 2026-05-05 16:24 | 52.13497 | 7.68634 | 166 ft | 137 kts | 71° |
| 2026-05-05 16:25 | 52.13862 | 7.70419 | 420 ft | 184 kts | 71° |
| 2026-05-05 16:25 | 52.14726 | 7.74561 | 2406 ft | 198 kts | 70° |
| 2026-05-05 16:25 | 52.15199 | 7.76686 | 3403 ft | 203 kts | 70° |
| 2026-05-05 16:26 | 52.16125 | 7.81596 | 4066 ft | 257 kts | 91° |
| 2026-05-05 16:26 | 52.14140 | 7.86277 | 5570 ft | 269 kts | 158° |
| 2026-05-05 16:27 | 52.12321 | 7.87011 | 6450 ft | 271 kts | 173° |
| 2026-05-05 16:27 | 52.10451 | 7.86689 | 7244 ft | 275 kts | 201° |
| 2026-05-05 16:27 | 52.08688 | 7.85455 | 8102 ft | 278 kts | 204° |
| 2026-05-05 16:27 | 52.06913 | 7.84161 | 8907 ft | 282 kts | 205° |
| 2026-05-05 16:28 | 52.05116 | 7.82848 | 9718 ft | 285 kts | 204° |
| 2026-05-05 16:28 | 52.03288 | 7.81519 | 10439 ft | 293 kts | 204° |
| 2026-05-05 16:28 | 52.01344 | 7.80117 | 10649 ft | 318 kts | 204° |
| 2026-05-05 16:28 | 51.99244 | 7.78611 | 10852 ft | 342 kts | 204° |
| 2026-05-05 16:29 | 51.97772 | 7.77561 | 10977 ft | 356 kts | 204° |
| 2026-05-05 16:29 | 51.95536 | 7.75972 | 11429 ft | 368 kts | 204° |
| 2026-05-05 16:29 | 51.93141 | 7.74275 | 12099 ft | 372 kts | 204° |
| 2026-05-05 16:29 | 51.90756 | 7.72589 | 12838 ft | 375 kts | 204° |
| 2026-05-05 16:30 | 51.88387 | 7.70916 | 13526 ft | 378 kts | 204° |
| 2026-05-05 16:30 | 51.85935 | 7.69188 | 14191 ft | 382 kts | 204° |
| 2026-05-05 16:30 | 51.83515 | 7.67484 | 14826 ft | 386 kts | 204° |
| 2026-05-05 16:30 | 51.81045 | 7.65746 | 15459 ft | 389 kts | 204° |
| 2026-05-05 16:31 | 51.78545 | 7.63989 | 16078 ft | 393 kts | 204° |
| 2026-05-05 16:31 | 51.76032 | 7.62226 | 16682 ft | 397 kts | 204° |
| 2026-05-05 16:31 | 51.73449 | 7.60448 | 17260 ft | 400 kts | 200° |
| 2026-05-05 16:31 | 51.70741 | 7.59622 | 17787 ft | 405 kts | 181° |
| 2026-05-05 16:32 | 51.67959 | 7.60257 | 18363 ft | 408 kts | 163° |
| 2026-05-05 16:32 | 51.65269 | 7.61758 | 18934 ft | 410 kts | 160° |
| 2026-05-05 16:32 | 51.62572 | 7.63352 | 19433 ft | 415 kts | 160° |
| 2026-05-05 16:32 | 51.59851 | 7.64966 | 19926 ft | 418 kts | 160° |
| 2026-05-05 16:33 | 51.57119 | 7.66564 | 20426 ft | 421 kts | 160° |
| 2026-05-05 16:33 | 51.54345 | 7.68162 | 20929 ft | 424 kts | 160° |
| 2026-05-05 16:33 | 51.51554 | 7.69751 | 21380 ft | 427 kts | 161° |
| 2026-05-05 16:33 | 51.48735 | 7.71345 | 21813 ft | 431 kts | 161° |
| 2026-05-05 16:34 | 51.45902 | 7.72943 | 22282 ft | 433 kts | 161° |
| 2026-05-05 16:34 | 51.43060 | 7.74544 | 22802 ft | 433 kts | 161° |
| 2026-05-05 16:34 | 51.40199 | 7.76155 | 22992 ft | 439 kts | 161° |
| 2026-05-05 16:34 | 51.37293 | 7.77791 | 22998 ft | 447 kts | 161° |
| 2026-05-05 16:35 | 51.34347 | 7.79458 | 23003 ft | 448 kts | 161° |
| 2026-05-05 16:35 | 51.31415 | 7.81120 | 22994 ft | 446 kts | 161° |
| 2026-05-05 16:35 | 51.28495 | 7.82774 | 22999 ft | 445 kts | 161° |
| 2026-05-05 16:35 | 51.25572 | 7.84427 | 23002 ft | 445 kts | 161° |
| 2026-05-05 16:36 | 51.22655 | 7.86073 | 23003 ft | 445 kts | 161° |
| 2026-05-05 16:36 | 51.19751 | 7.87709 | 23002 ft | 444 kts | 160° |
| 2026-05-05 16:36 | 51.16905 | 7.89654 | 22994 ft | 445 kts | 152° |
| 2026-05-05 16:36 | 51.14294 | 7.92296 | 23002 ft | 445 kts | 143° |
| 2026-05-05 16:37 | 51.11844 | 7.95312 | 23006 ft | 446 kts | 142° |
| 2026-05-05 16:37 | 51.09382 | 7.98348 | 22999 ft | 446 kts | 142° |
| 2026-05-05 16:37 | 51.06920 | 8.01338 | 22999 ft | 447 kts | 143° |
| 2026-05-05 16:37 | 51.04439 | 8.04318 | 23002 ft | 447 kts | 143° |
| 2026-05-05 16:38 | 51.01951 | 8.07290 | 23002 ft | 448 kts | 143° |
| 2026-05-05 16:38 | 50.99458 | 8.10259 | 23001 ft | 448 kts | 143° |
| 2026-05-05 16:38 | 50.96971 | 8.13219 | 23001 ft | 448 kts | 143° |
| 2026-05-05 16:38 | 50.94628 | 8.16004 | 23001 ft | 448 kts | 143° |
| 2026-05-05 16:39 | 50.92070 | 8.19044 | 23001 ft | 448 kts | 143° |
| 2026-05-05 16:39 | 50.89626 | 8.21946 | 23002 ft | 448 kts | 143° |
| 2026-05-05 16:39 | 50.87131 | 8.24903 | 23001 ft | 448 kts | 143° |
| 2026-05-05 16:39 | 50.84617 | 8.27841 | 23000 ft | 448 kts | 145° |
| 2026-05-05 16:40 | 50.81960 | 8.30375 | 23006 ft | 447 kts | 152° |
| 2026-05-05 16:40 | 50.79209 | 8.32665 | 23005 ft | 447 kts | 153° |
| 2026-05-05 16:40 | 50.76447 | 8.34926 | 23000 ft | 447 kts | 153° |
| 2026-05-05 16:40 | 50.73695 | 8.37220 | 23000 ft | 446 kts | 152° |
| 2026-05-05 16:41 | 50.70961 | 8.39539 | 23002 ft | 446 kts | 152° |
| 2026-05-05 16:41 | 50.68236 | 8.41864 | 23000 ft | 446 kts | 152° |
| 2026-05-05 16:41 | 50.65507 | 8.44185 | 23001 ft | 446 kts | 152° |
| 2026-05-05 16:41 | 50.62772 | 8.46501 | 23001 ft | 446 kts | 152° |
| 2026-05-05 16:42 | 50.60044 | 8.48808 | 23002 ft | 445 kts | 152° |
| 2026-05-05 16:42 | 50.57312 | 8.51114 | 23002 ft | 445 kts | 152° |
| 2026-05-05 16:42 | 50.54588 | 8.53412 | 22999 ft | 445 kts | 152° |
| 2026-05-05 16:42 | 50.51855 | 8.55715 | 23000 ft | 445 kts | 152° |
| 2026-05-05 16:43 | 50.49127 | 8.58011 | 23002 ft | 445 kts | 152° |
| 2026-05-05 16:43 | 50.46400 | 8.60303 | 23002 ft | 445 kts | 152° |
| 2026-05-05 16:43 | 50.43611 | 8.62402 | 22994 ft | 445 kts | 159° |
| 2026-05-05 16:43 | 50.40672 | 8.63884 | 23007 ft | 444 kts | 164° |
| 2026-05-05 16:44 | 50.39660 | 8.64348 | 23006 ft | 444 kts | 164° |